Portada
METAR-TAF:

METAR-TAF

Aeroports :

L'Havana, Cuba

latitud: 22-59N, longitud: 082-24W, altitud: 59 m

Observació

L'informe es va fer fa 23 minuts, a les 07:55 UTC
Vent 5 kt del Est
Temperatura 22°C
Humitat 100%
Pressió 1018 hPa
Visibilitat: 9000 m

METAR: MUHA 250755Z 08005KT 9000 NSC 22/22 Q1018

Hora: 03:18 (08:18 UTC)

Pronòstic

L'informe es va fer fa 3 hores i 18 minuts, a les 05:00 UTC
Pronòstic vàlid del 25 a les 06 UTC al 26 a les 06 UTC
Vent 6 kt del Est
Visibilitat: 9000 m
Escasses núvols a una alçada de 3000 ft
Evolucionant progressivament
l' 25 a les 14 UTC al 25 a les 16 UTC
Vent 12 kt del Est
Cel ennuvolat a una alçada de 2500 ft

TAF: MUHA 250500Z 2506/2606 08006KT 9000 FEW030 BECMG 2514/2516 08012KT BKN025

Observacions i pronòstics meteorològics de més de 4000 aeroports (METAR i TAF).

Les estacions disponibles són els punts grocs i vermells al mapa.

Posi el ratolí al punt desitjat per veure el nom de l'estació.

Feu clic per veure les observacions i els pronòstics meteorològics.

Per canviar el mapa: feu clic els botons verds amb una creu de color negre per apropar; al botó verd amb un guió per allunyar la imatge; o en les fletxes verdes per a mapes adjacents.


METAR-TAF: